Seiyo Maru — JI3719 — position and weather

sailwx.info

Track history (hours):
 
Tides and Currents Weather Stations Pressure Air Temp Water Temp Dewpoint Dewpoint Depression Visibility Wind Speed Wind Dir Waves Ship Positions

Seiyo Maru

Last reported at 2018-May-23 23:23 UTC. Time now 2018-May-24 21:31 UTC.
Position N 34°39' E 135°26'.

Length 44 m; draft 4.5 m.

Type: Tug. MMSI: 431301711.

Date/timePositionNaut miles runAvg speedWind from/ knotsBaromVisibWave heightAir tempDewpointWater temp
2018-May-23 23:23N 34°39' E 135°26'1 1.8
2018-May-23 23:00N 34°39' E 135°26'1 2.8
2018-May-23 22:30N 34°39' E 135°24'1 1.4
2018-May-23 22:00N 34°39' E 135°24'0 0.1
2018-May-23 21:30N 34°39' E 135°24'0 0.4
2018-May-23 21:00N 34°39' E 135°24'2 0.2
2018-May-23 12:36N 34°39' E 135°26'1 6.8
2018-May-23 12:29N 34°39' E 135°25'1 2.3
2018-May-23 11:55N 34°39' E 135°24'0 0.4
2018-May-23 11:30N 34°39' E 135°24'2 0.3
2018-May-23 04:07N 34°39' E 135°26'1 6.1
2018-May-23 04:01N 34°39' E 135°26'1 1.3
2018-May-23 03:29N 34°39' E 135°25'1 1.2
2018-May-23 03:00N 34°39' E 135°24'1 2.4
2018-May-23 02:30N 34°39' E 135°26'0 0.2
2018-May-23 00:32N 34°39' E 135°26'0 1.7
2018-May-23 00:30N 34°39' E 135°26'1 1.2
2018-May-23 00:01N 34°39' E 135°25'0 0.5
2018-May-22 23:30N 34°39' E 135°26'  
2018-May-17 01:38N 34°39' E 135°26'1 6.2
2018-May-17 01:30N 34°39' E 135°25'4 7.1
2018-May-17 01:00N 34°36' E 135°23'3 5.1
2018-May-17 00:29N 34°33' E 135°24'1 1.2
2018-May-16 23:28N 34°33' E 135°26'4 8.2
2018-May-16 22:59N 34°37' E 135°24'3 6.4
2018-May-16 22:30N 34°39' E 135°26'0 0.0
2018-May-16 11:38N 34°39' E 135°26'1 6.5
2018-May-16 11:29N 34°39' E 135°25'1 1.7
2018-May-16 10:58N 34°39' E 135°24'0 0.3
2018-May-16 10:30N 34°39' E 135°24'2 1.7
2018-May-16 09:22N 34°39' E 135°26'2 5.0
2018-May-16 09:00N 34°39' E 135°24'1 1.3
2018-May-16 08:30N 34°38' E 135°24'2 0.2
2018-May-15 22:01N 34°39' E 135°26'0 0.7
2018-May-15 22:00N 34°39' E 135°26'1 1.3
2018-May-15 21:30N 34°38' E 135°27'0 0.1
2018-May-15 20:59N 34°38' E 135°26'0 0.3
2018-May-15 20:30N 34°39' E 135°26'1 0.0
2018-May-14 08:16N 34°39' E 135°26'2 6.8
2018-May-14 08:00N 34°38' E 135°24'5 9.6
2018-May-14 07:30N 34°34' E 135°23'3 6.2
2018-May-14 07:00N 34°31' E 135°23'1 2.2
2018-May-14 06:30N 34°32' E 135°23'1 2.5
2018-May-14 06:01N 34°33' E 135°22'2 0.8
2018-May-14 03:12N 34°31' E 135°23'1 6.1
2018-May-14 03:01N 34°32' E 135°23'2 4.0
2018-May-14 02:31N 34°33' E 135°25'0 0.0
2018-May-14 02:01N 34°33' E 135°25'0 0.6
2018-May-14 01:30N 34°33' E 135°25'1 1.4
2018-May-14 01:01N 34°34' E 135°26'0 0.2
2018-May-14 00:31N 34°34' E 135°26'2 3.7
2018-May-14 00:00N 34°34' E 135°24'4 7.2
2018-May-13 23:31N 34°38' E 135°24'  
Track history (hours):
 
Tides and Currents Weather Stations Pressure Air Temp Water Temp Dewpoint Dewpoint Depression Visibility Wind Speed Wind Dir Waves Ship Positions

Seiyo Maru

Last reported at 2018-May-23 23:23 UTC. Time now 2018-May-24 21:31 UTC.
Position N 34°39' E 135°26'.

Length 44 m; draft 4.5 m.

Type: Tug. MMSI: 431301711.

Date/timePositionNaut miles runAvg speedWind from/ knotsBaromVisibWave heightAir tempDewpointWater temp
2018-May-23 23:23N 34°39' E 135°26'1 1.8
2018-May-23 23:00N 34°39' E 135°26'1 2.8
2018-May-23 22:30N 34°39' E 135°24'1 1.4
2018-May-23 22:00N 34°39' E 135°24'0 0.1
2018-May-23 21:30N 34°39' E 135°24'0 0.4
2018-May-23 21:00N 34°39' E 135°24'2 0.2
2018-May-23 12:36N 34°39' E 135°26'1 6.8
2018-May-23 12:29N 34°39' E 135°25'1 2.3
2018-May-23 11:55N 34°39' E 135°24'0 0.4
2018-May-23 11:30N 34°39' E 135°24'2 0.3
2018-May-23 04:07N 34°39' E 135°26'1 6.1
2018-May-23 04:01N 34°39' E 135°26'1 1.3
2018-May-23 03:29N 34°39' E 135°25'1 1.2
2018-May-23 03:00N 34°39' E 135°24'1 2.4
2018-May-23 02:30N 34°39' E 135°26'0 0.2
2018-May-23 00:32N 34°39' E 135°26'0 1.7
2018-May-23 00:30N 34°39' E 135°26'1 1.2
2018-May-23 00:01N 34°39' E 135°25'0 0.5
2018-May-22 23:30N 34°39' E 135°26'  
2018-May-17 01:38N 34°39' E 135°26'1 6.2
2018-May-17 01:30N 34°39' E 135°25'4 7.1
2018-May-17 01:00N 34°36' E 135°23'3 5.1
2018-May-17 00:29N 34°33' E 135°24'1 1.2
2018-May-16 23:28N 34°33' E 135°26'4 8.2
2018-May-16 22:59N 34°37' E 135°24'3 6.4
2018-May-16 22:30N 34°39' E 135°26'0 0.0
2018-May-16 11:38N 34°39' E 135°26'1 6.5
2018-May-16 11:29N 34°39' E 135°25'1 1.7
2018-May-16 10:58N 34°39' E 135°24'0 0.3
2018-May-16 10:30N 34°39' E 135°24'2 1.7
2018-May-16 09:22N 34°39' E 135°26'2 5.0
2018-May-16 09:00N 34°39' E 135°24'1 1.3
2018-May-16 08:30N 34°38' E 135°24'2 0.2
2018-May-15 22:01N 34°39' E 135°26'0 0.7
2018-May-15 22:00N 34°39' E 135°26'1 1.3
2018-May-15 21:30N 34°38' E 135°27'0 0.1
2018-May-15 20:59N 34°38' E 135°26'0 0.3
2018-May-15 20:30N 34°39' E 135°26'1 0.0
2018-May-14 08:16N 34°39' E 135°26'2 6.8
2018-May-14 08:00N 34°38' E 135°24'5 9.6
2018-May-14 07:30N 34°34' E 135°23'3 6.2
2018-May-14 07:00N 34°31' E 135°23'1 2.2
2018-May-14 06:30N 34°32' E 135°23'1 2.5
2018-May-14 06:01N 34°33' E 135°22'2 0.8
2018-May-14 03:12N 34°31' E 135°23'1 6.1
2018-May-14 03:01N 34°32' E 135°23'2 4.0
2018-May-14 02:31N 34°33' E 135°25'0 0.0
2018-May-14 02:01N 34°33' E 135°25'0 0.6
2018-May-14 01:30N 34°33' E 135°25'1 1.4
2018-May-14 01:01N 34°34' E 135°26'0 0.2
2018-May-14 00:31N 34°34' E 135°26'2 3.7
2018-May-14 00:00N 34°34' E 135°24'4 7.2
2018-May-13 23:31N 34°38' E 135°24'  

Dump ship's entire track history